Time;durP1;ratioP1;P1;durP2;ratioP2;P2;SDS_P1;SDS_P2;PMS_P1;PMS_P2;Temp;Humidity;BMP_temperature;BMP_pressure;BME280_temperature;BME280_humidity;BME280_pressure;Samples;Min_cycle;Max_cycle;Signal;HPM_P1;HPM_P2
2024/02/13 00:01:43;;;;;;;20.00;10.47;;;4.50;99.90;;;;;;5119091;28;20455;-63
2024/02/13 00:04:11;;;;;;;19.37;9.77;;;4.60;1.00;;;;;;5119831;28;20455;-63
2024/02/13 00:06:41;;;;;;;18.20;9.93;;;4.60;1.00;;;;;;5119660;28;20455;-63
2024/02/13 00:09:09;;;;;;;12.00;9.20;;;4.70;99.90;;;;;;5119481;28;20460;-63
2024/02/13 00:11:37;;;;;;;12.97;9.90;;;4.80;99.90;;;;;;5119784;28;20521;-63
2024/02/13 00:14:07;;;;;;;15.30;9.83;;;4.70;99.90;;;;;;5119616;28;20455;-63
2024/02/13 00:16:38;;;;;;;13.80;9.93;;;4.70;1.00;;;;;;5118783;28;20456;-63
2024/02/13 00:19:06;;;;;;;17.77;12.00;;;4.70;99.90;;;;;;5118698;28;20499;-63
2024/02/13 00:21:34;;;;;;;22.67;10.57;;;4.70;1.00;;;;;;5119324;28;20505;-62
2024/02/13 00:24:02;;;;;;;15.63;10.73;;;4.60;99.90;;;;;;5119193;28;20477;-63
2024/02/13 00:26:30;;;;;;;15.63;10.77;;;4.60;99.90;;;;;;5122718;28;20978;-63
2024/02/13 00:28:57;;;;;;;16.47;10.53;;;4.70;99.90;;;;;;5123777;28;20868;-62
2024/02/13 00:31:24;;;;;;;15.07;11.20;;;4.70;99.90;;;;;;5123375;28;20463;-62
2024/02/13 00:33:53;;;;;;;15.17;9.80;;;4.60;99.90;;;;;;5123361;27;20779;-63
2024/02/13 00:36:21;;;;;;;22.07;11.97;;;4.60;99.90;;;;;;5123733;28;20430;-63
2024/02/13 00:38:49;;;;;;;14.77;11.13;;;4.70;96.00;;;;;;5123167;28;20539;-63
2024/02/13 00:41:18;;;;;;;15.70;10.83;;;4.60;1.00;;;;;;5123198;28;20455;-63
2024/02/13 00:43:45;;;;;;;15.50;11.13;;;4.50;1.00;;;;;;5123881;27;20789;-63
2024/02/13 00:46:13;;;;;;;18.50;12.37;;;4.50;99.90;;;;;;5123622;27;20464;-62
2024/02/13 00:48:42;;;;;;;19.43;11.57;;;4.40;99.90;;;;;;5122868;28;20456;-63
2024/02/13 00:51:09;;;;;;;25.20;12.87;;;4.40;99.90;;;;;;5123185;28;20466;-63
2024/02/13 00:53:37;;;;;;;20.10;12.87;;;4.40;1.00;;;;;;5122770;28;20434;-63
2024/02/13 00:56:06;;;;;;;20.60;11.83;;;4.40;99.90;;;;;;5122466;28;20843;-63
2024/02/13 00:58:36;;;;;;;21.50;12.23;;;4.50;1.00;;;;;;5122448;28;20775;-63
2024/02/13 01:01:04;;;;;;;21.43;12.10;;;4.50;1.00;;;;;;5122604;28;20463;-63
2024/02/13 01:03:31;;;;;;;16.63;11.53;;;4.60;99.90;;;;;;5122469;28;20459;-63
2024/02/13 01:05:59;;;;;;;20.27;13.30;;;4.60;99.90;;;;;;5122238;28;20459;-63
2024/02/13 01:08:26;;;;;;;17.97;12.20;;;4.60;99.90;;;;;;5122523;28;20480;-63
2024/02/13 01:10:54;;;;;;;18.87;14.10;;;4.70;99.90;;;;;;5122231;28;20483;-63
2024/02/13 01:13:21;;;;;;;18.70;13.47;;;4.70;1.00;;;;;;5122200;28;20455;-63
2024/02/13 01:15:50;;;;;;;19.40;11.80;;;4.70;1.00;;;;;;5121960;28;20490;-63
2024/02/13 01:18:17;;;;;;;20.13;13.20;;;4.70;1.00;;;;;;5121725;28;20531;-62
2024/02/13 01:20:45;;;;;;;18.90;12.50;;;4.70;1.00;;;;;;5121774;28;20483;-63
2024/02/13 01:23:12;;;;;;;21.93;14.00;;;4.70;1.00;;;;;;5122356;28;20462;-63
2024/02/13 01:25:40;;;;;;;20.90;12.77;;;4.70;1.00;;;;;;5121678;28;20794;-63
2024/02/13 01:28:08;;;;;;;17.73;12.40;;;4.70;1.00;;;;;;5121788;28;20454;-62
2024/02/13 01:30:36;;;;;;;25.33;14.53;;;4.70;1.00;;;;;;5121970;28;20455;-63
2024/02/13 01:33:05;;;;;;;16.87;11.70;;;4.70;99.90;;;;;;5121938;28;20430;-63
2024/02/13 01:35:32;;;;;;;15.03;12.63;;;4.70;1.00;;;;;;5121197;28;20546;-64
2024/02/13 01:37:59;;;;;;;19.47;12.53;;;4.70;1.00;;;;;;5121396;28;20916;-63
2024/02/13 01:40:26;;;;;;;18.40;13.40;;;4.60;99.90;;;;;;5121289;28;20506;-63
2024/02/13 01:42:54;;;;;;;23.33;12.83;;;4.50;1.00;;;;;;5121372;28;20460;-63
2024/02/13 01:45:23;;;;;;;19.10;12.50;;;4.40;99.90;;;;;;5121534;28;20488;-63
2024/02/13 01:47:50;;;;;;;18.23;12.70;;;4.40;1.00;;;;;;5120709;28;20456;-63
2024/02/13 01:50:20;;;;;;;17.00;13.03;;;4.40;1.00;;;;;;5121151;28;20459;-62
2024/02/13 01:52:49;;;;;;;17.77;12.63;;;4.40;1.00;;;;;;5121146;28;20465;-63
2024/02/13 01:55:20;;;;;;;24.23;12.93;;;4.40;1.00;;;;;;5121026;28;20458;-63
2024/02/13 01:57:49;;;;;;;18.97;14.37;;;4.40;99.90;;;;;;5121281;28;20880;-63
2024/02/13 02:00:18;;;;;;;18.90;12.80;;;4.40;99.90;;;;;;5121287;28;20505;-63
2024/02/13 02:02:47;;;;;;;23.90;14.90;;;4.30;99.90;;;;;;5121045;28;20844;-63
2024/02/13 02:05:15;;;;;;;14.50;12.00;;;4.20;1.00;;;;;;5121487;28;20494;-63
2024/02/13 02:07:43;;;;;;;23.73;14.47;;;4.10;1.00;;;;;;5120642;28;20508;-63
2024/02/13 02:10:11;;;;;;;19.03;13.77;;;4.00;1.00;;;;;;5120693;28;20509;-63
2024/02/13 02:12:39;;;;;;;20.20;13.50;;;3.90;1.00;;;;;;5120869;28;20474;-63
2024/02/13 02:15:10;;;;;;;17.83;12.67;;;3.90;1.00;;;;;;5120835;28;20529;-63
2024/02/13 02:17:39;;;;;;;22.10;14.00;;;3.80;1.00;;;;;;5120921;28;20463;-63
2024/02/13 02:20:08;;;;;;;19.23;13.40;;;3.70;1.00;;;;;;5120603;28;20984;-63
2024/02/13 02:22:35;;;;;;;18.37;13.87;;;3.50;1.00;;;;;;5120917;28;20463;-63
2024/02/13 02:25:10;;;;;;;20.00;15.53;;;3.50;53.30;;;;;;5121021;28;20455;-63
2024/02/13 02:27:38;;;;;;;18.00;15.00;;;3.60;1.00;;;;;;5121411;28;20477;-63
2024/02/13 02:30:07;;;;;;;21.57;15.87;;;3.50;1.00;;;;;;5120178;28;20452;-62
2024/02/13 02:32:34;;;;;;;24.17;17.30;;;3.60;99.90;;;;;;5120498;28;20455;-63
2024/02/13 02:35:01;;;;;;;28.57;19.37;;;3.50;99.90;;;;;;5120355;28;20546;-64
2024/02/13 02:37:28;;;;;;;31.13;17.77;;;3.50;99.90;;;;;;5120655;28;20457;-64
2024/02/13 02:39:56;;;;;;;23.97;18.80;;;3.50;21.30;;;;;;5120734;28;20451;-64
2024/02/13 02:42:24;;;;;;;28.23;21.87;;;3.50;1.00;;;;;;5120299;28;20829;-63
2024/02/13 02:44:52;;;;;;;32.33;23.23;;;3.50;99.90;;;;;;5120599;28;20985;-63
2024/02/13 02:47:20;;;;;;;29.13;21.63;;;3.60;99.90;;;;;;5119745;28;20463;-63
2024/02/13 02:49:47;;;;;;;27.20;20.93;;;3.60;1.00;;;;;;5120107;28;20494;-63
2024/02/13 02:52:14;;;;;;;31.30;22.30;;;3.60;29.90;;;;;;5119752;28;20459;-63
2024/02/13 02:54:43;;;;;;;31.00;22.57;;;3.70;99.90;;;;;;5120350;28;20742;-63
2024/02/13 02:57:11;;;;;;;40.87;25.40;;;3.70;99.90;;;;;;5120374;28;20901;-63
2024/02/13 02:59:40;;;;;;;31.33;23.07;;;3.70;99.90;;;;;;5120324;28;20545;-63
2024/02/13 03:02:08;;;;;;;35.40;23.60;;;3.70;99.90;;;;;;5119640;28;20460;-63
2024/02/13 03:04:36;;;;;;;33.50;26.03;;;3.80;99.90;;;;;;5119892;28;20463;-63
2024/02/13 03:07:03;;;;;;;33.50;24.50;;;3.80;99.90;;;;;;5120241;28;20459;-63
2024/02/13 03:09:30;;;;;;;35.77;26.23;;;3.80;99.90;;;;;;5119231;28;20456;-63
2024/02/13 03:11:59;;;;;;;32.87;23.97;;;3.90;99.90;;;;;;5119647;28;20538;-64
2024/02/13 03:14:27;;;;;;;30.57;22.47;;;3.90;99.90;;;;;;5119496;28;20550;-63
2024/02/13 03:16:55;;;;;;;26.60;21.40;;;3.90;99.90;;;;;;5119854;28;20456;-63
2024/02/13 03:19:23;;;;;;;30.43;22.30;;;3.90;99.90;;;;;;5119972;28;20578;-63
2024/02/13 03:21:50;;;;;;;27.90;22.13;;;4.00;99.90;;;;;;5119181;28;20898;-63
2024/02/13 03:24:17;;;;;;;27.83;22.43;;;4.00;99.90;;;;;;5119394;28;20459;-63
2024/02/13 03:26:44;;;;;;;26.77;21.33;;;4.10;99.90;;;;;;5119253;28;20506;-63
2024/02/13 03:29:12;;;;;;;28.73;20.93;;;4.10;99.90;;;;;;5119274;28;20462;-63
2024/02/13 03:31:42;;;;;;;24.20;19.80;;;4.10;99.90;;;;;;5119769;28;20557;-64
2024/02/13 03:34:11;;;;;;;27.63;22.07;;;4.10;99.90;;;;;;5118985;28;20538;-63
2024/02/13 03:36:38;;;;;;;29.10;21.10;;;4.10;99.90;;;;;;5118958;28;20839;-63
2024/02/13 03:39:06;;;;;;;28.47;19.57;;;4.00;99.90;;;;;;5119242;28;20582;-63
2024/02/13 03:41:33;;;;;;;33.13;21.30;;;4.00;99.90;;;;;;5119316;28;20546;-63
2024/02/13 03:44:00;;;;;;;25.33;20.57;;;4.00;99.90;;;;;;5118818;28;20502;-63
2024/02/13 03:46:27;;;;;;;30.73;20.10;;;4.00;99.90;;;;;;5119369;28;20744;-63
2024/02/13 03:48:55;;;;;;;27.33;20.77;;;4.00;99.90;;;;;;5119319;28;20975;-63
2024/02/13 03:51:24;;;;;;;28.83;22.27;;;4.00;99.90;;;;;;5118346;28;20459;-63
2024/02/13 03:53:52;;;;;;;33.73;22.27;;;4.10;99.90;;;;;;5117503;28;20802;-64
2024/02/13 03:56:19;;;;;;;23.17;20.23;;;4.00;99.90;;;;;;5117313;28;20431;-63
2024/02/13 03:58:46;;;;;;;30.97;20.47;;;4.00;99.90;;;;;;5116362;28;20480;-63
2024/02/13 04:01:13;;;;;;;28.60;22.73;;;4.00;99.90;;;;;;5117075;28;20459;-63
2024/02/13 04:03:40;;;;;;;35.93;22.07;;;4.10;99.90;;;;;;5116808;28;20452;-64
2024/02/13 04:06:08;;;;;;;30.67;21.50;;;4.10;99.90;;;;;;5116804;28;20469;-64
2024/02/13 04:08:39;;;;;;;30.43;20.97;;;4.10;99.90;;;;;;5117966;28;20459;-63
2024/02/13 04:11:06;;;;;;;30.83;22.50;;;4.10;99.90;;;;;;5118582;28;20466;-63
2024/02/13 04:13:33;;;;;;;31.27;22.47;;;4.10;99.90;;;;;;5117719;28;20490;-64
2024/02/13 04:16:02;;;;;;;29.17;22.80;;;4.20;99.90;;;;;;5116727;28;20697;-62
2024/02/13 04:18:29;;;;;;;31.70;23.27;;;4.20;99.90;;;;;;5116615;28;20536;-63
2024/02/13 04:20:56;;;;;;;30.60;22.43;;;4.20;99.90;;;;;;5116913;28;20460;-63
2024/02/13 04:23:23;;;;;;;26.40;20.90;;;4.20;99.90;;;;;;5115482;28;20475;-64
2024/02/13 04:25:52;;;;;;;33.57;21.73;;;4.20;99.90;;;;;;5114802;28;20566;-63
2024/02/13 04:28:20;;;;;;;30.60;20.87;;;4.10;99.90;;;;;;5115552;28;20887;-63
2024/02/13 04:30:48;;;;;;;36.73;22.73;;;4.00;99.90;;;;;;5116912;28;20459;-63
2024/02/13 04:33:15;;;;;;;30.53;21.40;;;4.10;99.90;;;;;;5117428;28;20455;-63
2024/02/13 04:35:43;;;;;;;29.03;21.10;;;4.00;99.90;;;;;;5116571;28;20462;-64
2024/02/13 04:38:10;;;;;;;32.97;22.80;;;4.10;99.90;;;;;;5116936;28;20451;-64
2024/02/13 04:40:37;;;;;;;34.03;23.30;;;4.10;99.90;;;;;;5117252;28;20550;-63
2024/02/13 04:43:06;;;;;;;31.10;22.77;;;4.20;99.90;;;;;;5117915;28;20509;-63
2024/02/13 04:45:34;;;;;;;32.00;22.93;;;4.10;99.90;;;;;;5118355;28;20506;-64
2024/02/13 04:48:02;;;;;;;33.30;22.50;;;4.20;99.90;;;;;;5117900;28;20508;-63
2024/02/13 04:50:29;;;;;;;33.53;22.60;;;4.20;99.90;;;;;;5118163;28;20481;-64
2024/02/13 04:52:57;;;;;;;27.37;21.23;;;4.20;99.90;;;;;;5118378;28;20843;-63
2024/02/13 04:55:24;;;;;;;29.83;22.00;;;4.20;99.90;;;;;;5118162;28;20459;-63
2024/02/13 04:57:52;;;;;;;34.03;22.30;;;4.20;99.90;;;;;;5118339;28;20460;-64
2024/02/13 05:00:25;;;;;;;30.70;21.80;;;4.20;99.90;;;;;;5118267;28;20806;-63
2024/02/13 05:03:03;;;;;;;27.70;21.00;;;4.30;99.90;;;;;;5118515;28;20486;-63
2024/02/13 05:08:15;;;;;;;24.67;18.40;;;4.30;99.90;;;;;;5117843;28;20431;-63
2024/02/13 05:10:42;;;;;;;31.10;21.30;;;4.30;99.90;;;;;;5118637;28;20555;-64
2024/02/13 05:13:14;;;;;;;25.10;18.87;;;4.30;99.90;;;;;;5121941;28;20508;-64
2024/02/13 05:15:43;;;;;;;25.10;17.03;;;4.30;99.90;;;;;;5121973;28;20562;-63
2024/02/13 05:18:11;;;;;;;23.70;17.20;;;4.30;99.90;;;;;;5121577;28;20456;-64
2024/02/13 05:20:39;;;;;;;30.27;19.30;;;4.30;99.90;;;;;;5121369;28;20492;-63
2024/02/13 05:23:08;;;;;;;24.13;18.50;;;4.40;99.90;;;;;;5121730;28;20459;-63
2024/02/13 05:25:35;;;;;;;24.00;18.13;;;4.40;99.90;;;;;;5121070;28;20540;-63
2024/02/13 05:28:03;;;;;;;25.30;16.63;;;4.30;99.90;;;;;;5121694;28;20470;-64
2024/02/13 05:30:31;;;;;;;24.27;15.60;;;4.40;99.90;;;;;;5121309;28;20851;-63
2024/02/13 05:33:00;;;;;;;20.63;15.40;;;4.40;99.90;;;;;;5121613;28;20888;-63
2024/02/13 05:35:27;;;;;;;21.83;15.60;;;4.30;99.90;;;;;;5122054;28;20551;-63
2024/02/13 05:37:55;;;;;;;19.50;14.37;;;4.40;99.90;;;;;;5120904;28;20495;-63
2024/02/13 05:40:22;;;;;;;20.63;14.33;;;4.40;99.90;;;;;;5121100;28;21025;-63
2024/02/13 05:42:54;;;;;;;18.30;13.47;;;4.40;99.90;;;;;;5121317;28;20459;-63
2024/02/13 05:45:21;;;;;;;21.17;12.83;;;4.40;99.90;;;;;;5121076;28;20501;-63
2024/02/13 05:47:49;;;;;;;22.97;14.43;;;4.30;99.90;;;;;;5120864;28;20455;-64
2024/02/13 05:50:19;;;;;;;16.40;12.70;;;4.30;99.90;;;;;;5120487;28;20781;-64
2024/02/13 05:52:47;;;;;;;23.80;14.43;;;4.30;1.00;;;;;;5120342;28;20456;-63
2024/02/13 05:55:16;;;;;;;20.33;13.00;;;4.30;1.00;;;;;;5119219;28;20456;-64
2024/02/13 05:57:43;;;;;;;20.07;13.57;;;4.20;1.00;;;;;;5118827;27;20464;-64
2024/02/13 06:00:14;;;;;;;17.60;14.60;;;4.30;99.90;;;;;;5120369;28;20569;-64
2024/02/13 06:02:41;;;;;;;18.00;13.23;;;4.20;99.90;;;;;;5120176;28;20459;-63
2024/02/13 06:05:10;;;;;;;26.43;14.37;;;4.20;99.90;;;;;;5120198;28;20487;-64
2024/02/13 06:07:40;;;;;;;20.17;12.43;;;4.20;99.90;;;;;;5121167;28;20554;-63
2024/02/13 06:10:10;;;;;;;17.83;12.97;;;4.20;99.90;;;;;;5120056;28;20462;-64
2024/02/13 06:12:38;;;;;;;17.77;12.97;;;4.20;99.90;;;;;;5120638;28;20456;-64
2024/02/13 06:15:06;;;;;;;14.10;10.20;;;4.20;99.90;;;;;;5120686;28;20512;-64
2024/02/13 06:17:34;;;;;;;16.20;12.00;;;4.30;70.10;;;;;;5120455;28;20459;-63
2024/02/13 06:20:04;;;;;;;15.67;12.73;;;4.30;99.90;;;;;;5119565;28;20487;-63
2024/02/13 06:22:33;;;;;;;15.30;11.10;;;4.40;99.90;;;;;;5119036;28;20913;-64
2024/02/13 06:25:04;;;;;;;21.70;11.50;;;4.40;99.90;;;;;;5119828;28;20459;-63
2024/02/13 06:27:32;;;;;;;21.73;12.30;;;4.50;78.80;;;;;;5119542;28;20487;-63
2024/02/13 06:29:59;;;;;;;15.80;12.00;;;4.50;1.00;;;;;;5118296;28;20864;-63
2024/02/13 06:32:27;;;;;;;16.90;11.33;;;4.50;1.00;;;;;;5117367;28;20448;-63
2024/02/13 06:34:54;;;;;;;16.30;11.17;;;4.60;1.00;;;;;;5117853;28;20505;-63
2024/02/13 06:37:22;;;;;;;14.77;10.80;;;4.60;99.90;;;;;;5118920;28;20790;-62
2024/02/13 06:39:49;;;;;;;13.23;10.40;;;4.50;1.00;;;;;;5119158;28;20548;-63
2024/02/13 06:42:19;;;;;;;15.43;10.47;;;4.50;99.90;;;;;;5119371;28;20550;-61
2024/02/13 06:44:47;;;;;;;15.23;11.37;;;4.60;99.90;;;;;;5119098;28;20464;-62
2024/02/13 06:47:15;;;;;;;14.03;10.43;;;4.60;99.90;;;;;;5119502;28;20872;-62
2024/02/13 06:49:42;;;;;;;15.40;10.80;;;4.50;99.90;;;;;;5119124;28;20557;-63
2024/02/13 06:52:10;;;;;;;12.47;9.73;;;4.50;99.90;;;;;;5118048;28;20512;-62
2024/02/13 06:54:37;;;;;;;12.33;10.20;;;4.50;60.40;;;;;;5119095;28;20459;-63
2024/02/13 06:57:05;;;;;;;11.93;8.63;;;4.50;99.90;;;;;;5118302;28;20528;-63
2024/02/13 06:59:33;;;;;;;14.57;9.47;;;4.50;1.00;;;;;;5118920;27;21015;-62
2024/02/13 07:02:01;;;;;;;13.13;8.73;;;4.50;1.00;;;;;;5118999;28;20490;-63
2024/02/13 07:04:29;;;;;;;20.47;8.73;;;4.50;1.00;;;;;;5118567;28;20555;-62
2024/02/13 07:06:57;;;;;;;18.63;9.37;;;4.50;1.00;;;;;;5118656;28;20558;-62
2024/02/13 07:09:24;;;;;;;13.13;9.30;;;4.50;1.00;;;;;;5117669;28;20466;-63
2024/02/13 07:11:52;;;;;;;14.77;8.90;;;4.50;1.00;;;;;;5117425;28;20832;-62
2024/02/13 07:14:20;;;;;;;11.77;8.13;;;4.60;1.00;;;;;;5118818;28;20459;-61
2024/02/13 07:16:49;;;;;;;12.10;8.40;;;4.50;1.00;;;;;;5118439;28;20854;-61
2024/02/13 07:19:16;;;;;;;11.67;7.83;;;4.50;1.00;;;;;;5117917;28;20460;-61
2024/02/13 07:21:43;;;;;;;13.00;8.90;;;4.60;1.00;;;;;;5116972;28;20480;-62
2024/02/13 07:24:10;;;;;;;10.27;7.60;;;4.50;1.00;;;;;;5116857;28;20460;-62
2024/02/13 07:26:38;;;;;;;9.93;6.90;;;4.50;1.00;;;;;;5116983;28;20795;-63
2024/02/13 07:29:06;;;;;;;8.87;7.27;;;4.60;1.00;;;;;;5117718;28;20456;-62
2024/02/13 07:31:35;;;;;;;11.63;7.87;;;4.60;1.00;;;;;;5118563;28;20947;-62
2024/02/13 07:34:04;;;;;;;13.87;7.57;;;4.60;1.00;;;;;;5117884;28;20603;-62
2024/02/13 07:36:32;;;;;;;9.70;7.27;;;4.60;99.90;;;;;;5117349;28;20496;-63
2024/02/13 07:39:00;;;;;;;10.37;7.57;;;4.60;99.90;;;;;;5118385;28;20455;-62
2024/02/13 07:41:28;;;;;;;9.30;6.67;;;4.60;99.90;;;;;;5118227;28;20487;-62
2024/02/13 07:43:55;;;;;;;14.53;6.97;;;4.60;99.90;;;;;;5117818;28;20466;-62
2024/02/13 07:46:22;;;;;;;12.93;7.67;;;4.70;99.90;;;;;;5118013;28;20463;-62
2024/02/13 07:48:52;;;;;;;14.27;7.50;;;4.70;99.90;;;;;;5118427;28;20480;-62
2024/02/13 07:51:21;;;;;;;10.23;6.27;;;4.60;99.90;;;;;;5117986;28;20554;-62
2024/02/13 07:53:48;;;;;;;10.50;7.07;;;4.70;99.90;;;;;;5117721;28;20546;-62
2024/02/13 07:56:18;;;;;;;14.03;8.63;;;4.70;99.90;;;;;;5118313;28;20895;-62
2024/02/13 07:58:45;;;;;;;11.93;7.10;;;4.70;99.90;;;;;;5118182;28;20505;-62
2024/02/13 08:01:13;;;;;;;8.97;5.23;;;4.80;98.30;;;;;;5118453;28;20491;-62
2024/02/13 08:03:40;;;;;;;9.80;6.30;;;4.90;99.90;;;;;;5117997;28;20494;-62
2024/02/13 08:06:08;;;;;;;13.20;6.87;;;5.10;99.90;;;;;;5117868;28;20512;-63
2024/02/13 08:08:37;;;;;;;9.13;5.53;;;5.10;51.70;;;;;;5118110;28;20455;-62
2024/02/13 08:11:04;;;;;;;7.60;5.57;;;5.20;1.00;;;;;;5117663;28;20455;-62
2024/02/13 08:13:32;;;;;;;6.63;5.07;;;5.20;1.00;;;;;;5118031;28;20505;-62
2024/02/13 08:15:59;;;;;;;9.60;5.80;;;5.20;99.90;;;;;;5117745;28;20463;-62
2024/02/13 08:18:26;;;;;;;12.57;6.43;;;5.10;99.90;;;;;;5118138;28;20460;-61
2024/02/13 08:20:54;;;;;;;9.47;5.70;;;5.10;99.90;;;;;;5117918;28;20552;-62
2024/02/13 08:23:21;;;;;;;8.90;6.83;;;5.10;99.90;;;;;;5117201;28;20465;-62
2024/02/13 08:25:50;;;;;;;9.33;5.33;;;5.10;99.90;;;;;;5117729;28;20476;-62
2024/02/13 08:28:19;;;;;;;9.70;5.30;;;5.20;99.90;;;;;;5116943;28;20964;-62
2024/02/13 08:30:47;;;;;;;7.87;4.67;;;5.50;99.90;;;;;;5115026;28;20456;-62
2024/02/13 08:33:15;;;;;;;9.20;5.87;;;5.60;99.90;;;;;;5115217;28;20459;-62
2024/02/13 08:35:43;;;;;;;10.17;5.50;;;5.80;1.00;;;;;;5116278;28;20923;-62
2024/02/13 08:38:11;;;;;;;8.90;6.20;;;5.90;1.00;;;;;;5115207;28;20466;-62
2024/02/13 08:40:39;;;;;;;8.93;6.00;;;6.10;99.90;;;;;;5116128;28;20484;-62
2024/02/13 08:43:10;;;;;;;19.37;8.10;;;6.30;99.90;;;;;;5116088;28;20459;-61
2024/02/13 08:45:38;;;;;;;9.73;4.90;;;6.50;45.20;;;;;;5118374;28;20455;-62
2024/02/13 08:48:06;;;;;;;9.03;4.67;;;6.40;1.00;;;;;;5121531;28;20455;-61
2024/02/13 08:50:33;;;;;;;5.63;4.40;;;6.50;1.00;;;;;;5121610;28;20451;-62
2024/02/13 08:53:01;;;;;;;8.47;4.60;;;6.70;1.00;;;;;;5121851;28;20746;-63
2024/02/13 08:55:29;;;;;;;6.57;4.30;;;6.80;99.90;;;;;;5121788;28;20459;-62
2024/02/13 08:57:56;;;;;;;7.20;4.53;;;6.90;99.90;;;;;;5121238;27;20459;-61
2024/02/13 09:00:28;;;;;;;8.80;4.20;;;6.80;99.90;;;;;;5121316;28;20493;-62
2024/02/13 09:02:57;;;;;;;8.60;4.67;;;6.70;99.90;;;;;;5121427;28;20508;-61
2024/02/13 09:05:24;;;;;;;7.27;4.07;;;6.90;99.90;;;;;;5121556;28;20740;-61
2024/02/13 09:07:51;;;;;;;6.37;4.00;;;7.00;99.90;;;;;;5120486;28;20746;-62
2024/02/13 09:10:19;;;;;;;10.60;4.80;;;7.10;99.90;;;;;;5121174;28;20487;-62
2024/02/13 09:12:47;;;;;;;12.60;4.27;;;6.90;99.90;;;;;;5121181;28;20488;-61
2024/02/13 09:15:15;;;;;;;10.60;5.40;;;6.80;99.90;;;;;;5120986;27;20455;-61
2024/02/13 09:17:47;;;;;;;7.83;3.20;;;6.90;99.90;;;;;;5121023;28;20534;-61
2024/02/13 09:20:15;;;;;;;8.20;3.80;;;6.90;99.90;;;;;;5121102;28;20578;-61
2024/02/13 09:22:44;;;;;;;8.53;3.90;;;7.00;99.90;;;;;;5120212;28;20722;-61
2024/02/13 09:25:13;;;;;;;6.70;3.93;;;6.90;99.90;;;;;;5120279;28;20565;-60
2024/02/13 09:27:41;;;;;;;6.13;3.40;;;6.90;99.90;;;;;;5120063;28;20494;-59
2024/02/13 09:30:10;;;;;;;7.57;3.53;;;6.90;99.90;;;;;;5120404;27;20456;-60
2024/02/13 09:32:38;;;;;;;6.67;3.57;;;6.80;99.90;;;;;;5120734;28;20459;-59
2024/02/13 09:35:08;;;;;;;5.60;3.30;;;7.00;99.90;;;;;;5120158;28;20447;-59
2024/02/13 09:37:39;;;;;;;5.93;3.43;;;7.10;99.90;;;;;;5120410;28;20455;-59
2024/02/13 09:40:13;;;;;;;7.27;3.13;;;7.10;1.00;;;;;;5119466;28;20483;-59
2024/02/13 09:42:42;;;;;;;7.63;3.47;;;7.10;40.70;;;;;;5120464;28;20897;-59
2024/02/13 09:45:11;;;;;;;10.80;3.50;;;7.00;99.90;;;;;;5120389;28;20860;-60
2024/02/13 09:47:39;;;;;;;8.20;4.10;;;7.00;99.90;;;;;;5120105;28;20546;-60
2024/02/13 09:50:12;;;;;;;5.93;3.13;;;7.10;99.90;;;;;;5120128;28;20495;-59
2024/02/13 09:52:47;;;;;;;8.77;3.67;;;7.50;99.90;;;;;;5120244;28;20497;-59
2024/02/13 09:55:15;;;;;;;7.10;3.70;;;8.10;46.00;;;;;;5116778;28;20447;-60
2024/02/13 09:57:43;;;;;;;10.27;3.60;;;8.30;1.00;;;;;;5117225;28;20519;-60
2024/02/13 10:00:16;;;;;;;9.70;4.10;;;8.30;1.00;;;;;;5115448;28;20488;-62
2024/02/13 10:02:44;;;;;;;5.87;3.30;;;8.40;1.00;;;;;;5118115;28;20509;-62
2024/02/13 10:05:13;;;;;;;7.73;3.40;;;8.70;1.00;;;;;;5118808;28;20558;-61
2024/02/13 10:07:41;;;;;;;7.07;3.50;;;8.60;1.00;;;;;;5118613;28;20473;-61
2024/02/13 10:10:11;;;;;;;7.60;3.53;;;8.60;1.00;;;;;;5118663;27;20456;-62
2024/02/13 10:12:49;;;;;;;7.77;3.87;;;8.40;1.00;;;;;;5118100;28;20459;-62
2024/02/13 10:15:17;;;;;;;8.23;3.50;;;8.40;1.00;;;;;;5116209;27;20564;-61
2024/02/13 10:17:45;;;;;;;5.73;3.60;;;8.50;1.00;;;;;;5106368;27;20908;-61
2024/02/13 10:20:17;;;;;;;12.10;3.70;;;8.70;1.00;;;;;;5105498;28;20446;-62
2024/02/13 10:22:47;;;;;;;4.67;3.63;;;8.90;1.00;;;;;;5118160;28;20463;-61
2024/02/13 10:25:15;;;;;;;7.03;3.30;;;8.80;1.00;;;;;;5121400;27;20537;-61
2024/02/13 10:27:43;;;;;;;5.67;3.20;;;9.00;99.90;;;;;;5116144;27;20464;-62
2024/02/13 10:30:12;;;;;;;8.93;3.97;;;9.30;1.00;;;;;;5114970;27;20478;-61
2024/02/13 10:32:44;;;;;;;9.40;3.77;;;9.50;99.90;;;;;;5116122;28;20475;-61
2024/02/13 10:35:11;;;;;;;8.57;3.67;;;9.60;99.90;;;;;;5120575;27;20495;-61
2024/02/13 10:37:40;;;;;;;6.13;3.83;;;9.60;99.90;;;;;;5114127;27;20465;-61
2024/02/13 10:40:16;;;;;;;7.33;3.07;;;9.90;99.90;;;;;;5110116;28;20880;-61
2024/02/13 10:42:44;;;;;;;7.23;3.43;;;10.00;1.00;;;;;;5108357;28;20472;-61
2024/02/13 10:45:14;;;;;;;6.47;2.93;;;9.80;1.00;;;;;;5098301;28;20937;-61
2024/02/13 10:47:49;;;;;;;6.40;3.17;;;9.90;99.90;;;;;;5115854;27;20479;-61
2024/02/13 10:50:17;;;;;;;6.33;3.00;;;10.10;1.00;;;;;;5117333;28;20512;-62
2024/02/13 10:52:49;;;;;;;10.77;3.97;;;10.30;1.00;;;;;;5117096;28;20573;-62
2024/02/13 10:55:20;;;;;;;5.10;3.30;;;10.10;1.00;;;;;;5117523;28;20488;-62
2024/02/13 10:57:49;;;;;;;7.03;3.13;;;9.90;1.00;;;;;;5116402;28;20907;-62
2024/02/13 11:00:19;;;;;;;6.20;4.10;;;9.60;99.90;;;;;;5117576;28;20790;-62
2024/02/13 11:02:49;;;;;;;6.03;4.40;;;9.40;1.00;;;;;;5118545;28;20495;-61
2024/02/13 11:05:17;;;;;;;7.10;3.60;;;8.90;1.00;;;;;;5118593;28;20456;-62
2024/02/13 11:07:46;;;;;;;10.07;5.90;;;8.90;99.90;;;;;;5114936;28;20977;-61
2024/02/13 11:10:14;;;;;;;9.20;3.87;;;8.90;20.40;;;;;;5116337;28;20892;-61
2024/02/13 11:12:44;;;;;;;7.63;3.97;;;8.90;99.90;;;;;;5118044;27;20764;-61
2024/02/13 11:15:16;;;;;;;7.87;4.40;;;8.90;1.00;;;;;;5118349;28;20884;-62
2024/02/13 11:17:55;;;;;;;7.50;3.77;;;8.90;1.00;;;;;;5117830;28;20439;-62
2024/02/13 11:20:23;;;;;;;8.20;3.13;;;9.00;99.90;;;;;;5118155;28;20455;-63
2024/02/13 11:22:58;;;;;;;7.37;2.80;;;8.80;1.00;;;;;;5117303;28;20451;-61
2024/02/13 11:25:31;;;;;;;5.03;2.80;;;9.20;99.90;;;;;;5117829;28;20501;-61
2024/02/13 11:28:05;;;;;;;4.30;2.90;;;9.50;99.90;;;;;;5117815;28;20509;-61
2024/02/13 11:30:34;;;;;;;5.63;2.40;;;9.60;99.90;;;;;;5117473;28;20455;-61
2024/02/13 11:33:05;;;;;;;5.63;2.30;;;9.60;6.80;;;;;;5118637;28;20791;-62
2024/02/13 11:35:39;;;;;;;10.87;3.17;;;9.80;96.50;;;;;;5118632;28;20451;-62
2024/02/13 11:38:18;;;;;;;4.33;2.50;;;9.60;1.00;;;;;;5117360;28;20459;-62
2024/02/13 11:40:54;;;;;;;4.60;2.63;;;9.50;99.90;;;;;;5117486;28;20479;-61
2024/02/13 11:43:24;;;;;;;5.83;3.27;;;9.30;1.00;;;;;;5117668;28;20459;-62
2024/02/13 11:45:52;;;;;;;7.63;2.83;;;9.20;1.00;;;;;;5117512;28;20487;-61
2024/02/13 11:48:25;;;;;;;6.90;2.77;;;9.00;99.90;;;;;;5117719;28;20876;-61
2024/02/13 11:50:55;;;;;;;5.40;2.57;;;8.70;99.90;;;;;;5118399;28;20811;-62
2024/02/13 11:53:26;;;;;;;7.73;3.10;;;8.40;99.90;;;;;;5118038;28;20459;-62
2024/02/13 11:55:55;;;;;;;7.57;3.20;;;8.40;1.00;;;;;;5117527;28;20477;-62
2024/02/13 11:58:26;;;;;;;7.33;2.90;;;8.30;97.00;;;;;;5099328;28;20828;-62
2024/02/13 12:01:00;;;;;;;4.90;2.77;;;8.20;99.90;;;;;;5097669;28;20531;-60
2024/02/13 12:03:28;;;;;;;5.50;2.97;;;8.20;99.90;;;;;;5097913;28;20759;-61
2024/02/13 12:05:56;;;;;;;5.80;3.40;;;8.50;99.90;;;;;;5096959;28;20518;-61
2024/02/13 12:08:26;;;;;;;9.57;2.97;;;8.80;96.50;;;;;;5097558;28;20514;-62
2024/02/13 12:10:54;;;;;;;8.20;3.07;;;8.80;99.90;;;;;;5097714;28;20456;-62
2024/02/13 12:13:22;;;;;;;7.07;3.10;;;8.90;99.90;;;;;;5096933;28;20460;-62
2024/02/13 12:15:50;;;;;;;4.00;3.00;;;9.00;62.00;;;;;;5097255;28;20457;-61
2024/02/13 12:18:18;;;;;;;7.10;2.60;;;9.10;69.30;;;;;;5097055;28;20462;-61
2024/02/13 12:20:50;;;;;;;5.33;2.60;;;9.40;70.50;;;;;;5098345;28;20456;-62
2024/02/13 12:23:18;;;;;;;5.50;3.30;;;9.50;76.00;;;;;;5101908;28;20460;-61
2024/02/13 12:25:49;;;;;;;4.50;3.30;;;9.70;99.90;;;;;;5101439;28;20682;-62
2024/02/13 12:28:18;;;;;;;4.13;2.43;;;10.10;99.90;;;;;;5101608;28;20534;-62
2024/02/13 12:30:48;;;;;;;6.60;3.20;;;9.70;99.90;;;;;;5100785;28;20468;-61
2024/02/13 12:33:20;;;;;;;6.40;2.80;;;9.70;1.00;;;;;;5101740;28;20467;-63
2024/02/13 12:35:58;;;;;;;5.10;2.80;;;9.90;19.90;;;;;;5101732;28;20459;-61
2024/02/13 12:38:28;;;;;;;7.07;2.53;;;10.00;19.80;;;;;;5101394;28;20516;-63
2024/02/13 12:40:58;;;;;;;3.97;2.40;;;10.20;1.00;;;;;;5100368;28;20491;-62
2024/02/13 12:43:28;;;;;;;4.17;2.27;;;10.40;1.00;;;;;;5100625;28;20483;-62
2024/02/13 12:45:58;;;;;;;7.43;2.70;;;10.40;1.00;;;;;;5099987;27;20468;-64
2024/02/13 12:48:27;;;;;;;3.60;2.20;;;10.40;1.00;;;;;;5120184;27;20540;-61
2024/02/13 12:50:56;;;;;;;6.10;2.23;;;10.50;1.00;;;;;;5120652;28;20463;-62
2024/02/13 12:53:25;;;;;;;3.93;2.40;;;10.60;1.00;;;;;;5120809;28;20477;-62
2024/02/13 12:55:52;;;;;;;5.83;2.50;;;10.50;1.00;;;;;;5120063;28;20463;-61
2024/02/13 12:58:22;;;;;;;4.30;2.13;;;10.10;1.00;;;;;;5119653;28;20498;-62